Terminal Aerodrome Forecast
Issued by NWS

Home | Current Version | Previous Version | Text Only | Print | Product List | Glossary On
Versions: 1 2 3 4 5 6 7 8 9 10 11 12 13
658
FTUS43 KJKL 231132
TAFSJS
TAF
KSJS 231132Z 2312/2412 VRB03KT 1/4SM FG OVC001
     FM231330 VRB03KT P6SM FEW200
     FM240700 VRB03KT 3SM BR FEW200
     FM240900 VRB03KT 1SM BR SCT002=

USA.gov is the U.S. government's official web portal to all federal, state and local government web resources and services.